Time;durP1;ratioP1;P1;durP2;ratioP2;P2;SDS_P1;SDS_P2;PMS_P1;PMS_P2;Temp;Humidity;BMP_temperature;BMP_pressure;BME280_temperature;BME280_humidity;BME280_pressure;Samples;Min_cycle;Max_cycle;Signal;HPM_P1;HPM_P2
2022/11/19 00:01:25;;;;;;;14.85;2.75;;;8.80;99.90;;;;;;5016090;28;20050;-73
2022/11/19 00:03:53;;;;;;;17.05;2.83;;;8.80;99.90;;;;;;5015761;28;20057;-73
2022/11/19 00:06:25;;;;;;;;;;;8.80;99.90;;;;;;5000277;28;20050;-72
2022/11/19 00:08:53;;;;;;;16.63;2.85;;;8.80;99.90;;;;;;5016112;28;19948;-72
2022/11/19 00:14:11;;;;;;;17.13;2.92;;;8.80;99.90;;;;;;5016775;28;20050;-72
2022/11/19 00:16:39;;;;;;;21.80;3.42;;;8.90;99.90;;;;;;5015257;28;20492;-72
2022/11/19 00:19:08;;;;;;;18.17;3.38;;;8.80;99.90;;;;;;5016470;28;20053;-72
2022/11/19 00:21:35;;;;;;;22.45;3.42;;;9.50;99.90;;;;;;4982780;28;20069;-72
2022/11/19 00:24:03;;;;;;;19.55;3.08;;;8.80;99.90;;;;;;5015207;28;20053;-72
2022/11/19 00:26:31;;;;;;;18.15;3.13;;;8.70;99.90;;;;;;4999129;28;20050;-72
2022/11/19 00:28:58;;;;;;;17.27;3.20;;;8.70;99.90;;;;;;5015368;28;20060;-73
2022/11/19 00:31:26;;;;;;;15.00;3.00;;;8.70;99.90;;;;;;5016370;28;20408;-73
2022/11/19 00:33:53;;;;;;;18.27;3.28;;;8.70;99.90;;;;;;5015793;28;20050;-72
2022/11/19 00:36:22;;;;;;;16.15;2.92;;;8.70;99.90;;;;;;5014740;28;20041;-73
2022/11/19 00:38:49;;;;;;;;;;;9.60;99.90;;;;;;5016653;28;20055;-73
2022/11/19 00:41:17;;;;;;;19.02;3.42;;;8.60;99.90;;;;;;4999050;28;19925;-73
2022/11/19 00:43:48;;;;;;;19.38;3.20;;;8.70;99.90;;;;;;5014848;28;20058;-73
2022/11/19 00:46:17;;;;;;;15.40;2.85;;;8.60;99.90;;;;;;5016006;28;20046;-72
2022/11/19 00:48:46;;;;;;;17.52;3.10;;;8.60;99.90;;;;;;5015717;28;20033;-73
2022/11/19 00:51:15;;;;;;;14.98;2.95;;;8.70;99.90;;;;;;5014633;28;20046;-72
2022/11/19 00:53:43;;;;;;;15.52;2.70;;;8.70;99.90;;;;;;5015993;28;20056;-72
2022/11/19 00:56:13;;;;;;;19.45;2.85;;;8.60;99.90;;;;;;5014544;28;20053;-72
2022/11/19 00:58:41;;;;;;;18.10;3.10;;;8.60;99.90;;;;;;5015007;28;20053;-72
2022/11/19 01:01:09;;;;;;;15.85;2.90;;;8.60;99.90;;;;;;5015533;28;20050;-73
2022/11/19 01:03:38;;;;;;;17.83;3.00;;;10.20;99.90;;;;;;5014480;28;20054;-72
2022/11/19 01:06:07;;;;;;;14.15;2.70;;;8.60;99.90;;;;;;5015790;28;20046;-72
2022/11/19 01:08:35;;;;;;;17.10;2.95;;;8.60;99.90;;;;;;5015579;28;20050;-72
2022/11/19 01:11:13;;;;;;;17.92;2.75;;;8.60;99.90;;;;;;5014351;28;20046;-72
2022/11/19 01:13:42;;;;;;;15.75;3.20;;;8.60;99.90;;;;;;4998439;28;20503;-72
2022/11/19 01:16:15;;;;;;;15.70;2.58;;;8.60;99.90;;;;;;5014646;28;20057;-71
2022/11/19 01:18:45;;;;;;;19.45;2.53;;;8.60;99.90;;;;;;5015570;28;20042;-72
2022/11/19 01:21:13;;;;;;;16.30;2.65;;;8.60;99.90;;;;;;5015422;28;20049;-72
2022/11/19 01:23:42;;;;;;;;;;;8.70;99.90;;;;;;5014489;28;20046;-72
2022/11/19 01:26:10;;;;;;;20.10;2.50;;;8.50;99.90;;;;;;5015126;28;19940;-72
2022/11/19 01:28:38;;;;;;;15.57;2.90;;;8.50;99.90;;;;;;5015136;28;20050;-72
2022/11/19 01:31:35;;;;;;;29.85;3.42;;;8.40;99.90;;;;;;5014193;28;20376;-72
2022/11/19 01:34:02;;;;;;;19.33;2.70;;;8.30;99.90;;;;;;5002847;28;20053;-72
2022/11/19 01:36:30;;;;;;;16.33;2.67;;;8.30;99.90;;;;;;5019250;28;20384;-72
2022/11/19 01:38:58;;;;;;;19.77;2.53;;;8.70;99.90;;;;;;5034391;28;20061;-72
2022/11/19 01:41:28;;;;;;;14.75;2.97;;;8.30;99.90;;;;;;5034706;28;20049;-72
2022/11/19 01:43:59;;;;;;;18.00;2.90;;;8.30;99.90;;;;;;5016497;28;20049;-71
2022/11/19 01:46:32;;;;;;;15.02;3.03;;;8.10;99.90;;;;;;5035004;28;20041;-72
2022/11/19 01:49:03;;;;;;;12.00;2.78;;;8.10;99.90;;;;;;5033446;28;20050;-72
2022/11/19 01:51:36;;;;;;;16.30;2.70;;;9.00;99.90;;;;;;5034969;28;20045;-73
2022/11/19 01:54:11;;;;;;;17.48;2.55;;;8.20;99.90;;;;;;5034493;28;20048;-71
2022/11/19 01:56:39;;;;;;;14.18;2.80;;;8.20;99.90;;;;;;5033391;28;20050;-72
2022/11/19 01:59:12;;;;;;;19.27;2.95;;;8.20;99.90;;;;;;5033696;28;20049;-72
2022/11/19 02:01:41;;;;;;;16.85;2.42;;;8.20;99.90;;;;;;5033869;28;20046;-72
2022/11/19 02:04:10;;;;;;;18.48;2.33;;;8.10;99.90;;;;;;5033349;28;20384;-72
2022/11/19 02:06:38;;;;;;;21.20;3.20;;;8.10;99.90;;;;;;5034035;28;20049;-72
2022/11/19 02:09:05;;;;;;;17.38;2.25;;;8.00;99.90;;;;;;5033816;28;20068;-72
2022/11/19 02:11:54;;;;;;;24.42;3.03;;;7.90;99.90;;;;;;5038501;28;20396;-72
2022/11/19 02:14:50;;;;;;;15.13;2.60;;;7.90;99.90;;;;;;5038173;28;20042;-72
2022/11/19 02:17:42;;;;;;;15.43;2.75;;;7.90;99.90;;;;;;5037416;28;20072;-72
2022/11/19 02:20:32;;;;;;;22.13;2.75;;;7.90;99.90;;;;;;5037528;28;20056;-72
2022/11/19 02:23:02;;;;;;;21.98;2.80;;;7.90;99.90;;;;;;5037597;28;20053;-73
2022/11/19 02:25:49;;;;;;;22.80;3.05;;;7.90;99.90;;;;;;5038470;28;20127;-72
2022/11/19 02:28:25;;;;;;;23.98;2.72;;;7.90;99.90;;;;;;5038192;28;20045;-72
2022/11/19 02:31:15;;;;;;;14.65;2.78;;;7.90;99.90;;;;;;5037302;28;20049;-72
2022/11/19 02:33:47;;;;;;;17.95;2.55;;;7.90;99.90;;;;;;5037987;28;20068;-72
2022/11/19 02:36:23;;;;;;;20.33;3.15;;;7.90;99.90;;;;;;5025990;28;20481;-71
2022/11/19 02:39:08;;;;;;;19.17;2.80;;;7.90;99.90;;;;;;5001251;28;20060;-72
2022/11/19 02:41:43;;;;;;;17.73;2.75;;;7.90;99.90;;;;;;5018350;28;20037;-73
2022/11/19 02:47:19;;;;;;;17.63;2.45;;;7.80;99.90;;;;;;5018185;28;20054;-72
2022/11/19 02:49:48;;;;;;;19.95;2.60;;;7.70;99.90;;;;;;4999735;28;20046;-72
2022/11/19 02:52:16;;;;;;;16.52;2.70;;;7.60;99.90;;;;;;5018038;28;20046;-72
2022/11/19 02:54:44;;;;;;;25.80;2.63;;;7.50;99.90;;;;;;5017833;28;20046;-72
2022/11/19 02:57:12;;;;;;;20.83;2.58;;;7.50;99.90;;;;;;5016920;28;20488;-72
2022/11/19 03:05:29;;;;;;;19.98;2.72;;;7.20;99.90;;;;;;5017855;28;20050;-72
2022/11/19 03:07:57;;;;;;;28.75;2.90;;;7.10;99.90;;;;;;5017882;28;20401;-72
2022/11/19 03:10:31;;;;;;;25.33;3.40;;;7.10;99.90;;;;;;4999606;28;20053;-72
2022/11/19 03:16:40;;;;;;;17.92;2.80;;;7.50;99.90;;;;;;4940419;29;20043;-72
2022/11/19 03:19:19;;;;;;;18.15;2.80;;;7.30;99.90;;;;;;4998000;28;20065;-72
2022/11/19 03:22:19;;;;;;;21.52;2.92;;;7.00;99.90;;;;;;4999901;28;20049;-72
2022/11/19 03:24:53;;;;;;;14.90;2.78;;;7.00;99.90;;;;;;5017263;28;20496;-72
2022/11/19 03:27:31;;;;;;;16.70;2.58;;;7.00;99.90;;;;;;5017733;28;20065;-72
2022/11/19 03:30:00;;;;;;;16.17;3.03;;;7.00;99.90;;;;;;5016153;28;20054;-72
2022/11/19 03:32:34;;;;;;;17.40;2.72;;;7.00;99.90;;;;;;5000067;28;20365;-72
2022/11/19 03:35:08;;;;;;;14.80;2.47;;;7.00;99.90;;;;;;5016894;28;20046;-73
2022/11/19 03:37:38;;;;;;;21.25;3.30;;;7.10;99.90;;;;;;5016164;28;20046;-72
2022/11/19 03:40:08;;;;;;;18.60;3.05;;;7.10;99.90;;;;;;5017136;28;20045;-72
2022/11/19 03:42:38;;;;;;;13.05;2.47;;;7.20;99.90;;;;;;4999135;28;20056;-72
2022/11/19 03:45:13;;;;;;;15.07;2.42;;;9.10;99.90;;;;;;5017082;28;20057;-72
2022/11/19 03:47:43;;;;;;;10.63;2.72;;;7.20;99.90;;;;;;5016821;28;20049;-72
2022/11/19 03:50:30;;;;;;;23.85;3.22;;;7.30;99.90;;;;;;4998617;28;20053;-72
2022/11/19 03:52:58;;;;;;;14.50;2.83;;;7.30;99.90;;;;;;5017151;28;20053;-72
2022/11/19 03:55:36;;;;;;;14.15;2.83;;;7.50;99.90;;;;;;5016979;28;20060;-72
2022/11/19 03:58:06;;;;;;;22.27;2.83;;;7.40;99.90;;;;;;4999401;28;20061;-73
2022/11/19 04:00:34;;;;;;;15.63;2.88;;;7.40;99.90;;;;;;5017104;28;20045;-72
2022/11/19 04:03:01;;;;;;;17.73;3.03;;;7.40;99.90;;;;;;5016122;28;20042;-72
2022/11/19 04:05:29;;;;;;;15.50;2.78;;;7.40;99.90;;;;;;4999853;28;20041;-72
2022/11/19 04:07:56;;;;;;;17.52;3.20;;;7.50;99.90;;;;;;5016575;28;20046;-72
2022/11/19 04:10:24;;;;;;;19.02;2.92;;;7.50;99.90;;;;;;4998316;28;20049;-71
2022/11/19 04:12:51;;;;;;;15.55;3.08;;;7.50;99.90;;;;;;5017080;28;20503;-72
2022/11/19 04:15:19;;;;;;;21.95;2.83;;;7.50;99.90;;;;;;5017013;28;20049;-71
2022/11/19 04:17:46;;;;;;;16.35;2.92;;;7.50;99.90;;;;;;5015302;28;20049;-71
2022/11/19 04:20:14;;;;;;;19.38;3.50;;;7.50;99.90;;;;;;5016481;28;20042;-72
2022/11/19 04:22:41;;;;;;;16.50;2.58;;;7.50;99.90;;;;;;5015319;28;20049;-72
2022/11/19 04:25:09;;;;;;;21.33;3.28;;;7.50;99.90;;;;;;5016208;28;20338;-72
2022/11/19 04:27:36;;;;;;;18.25;2.75;;;7.40;99.90;;;;;;5016206;28;20479;-72
2022/11/19 04:30:04;;;;;;;19.80;2.50;;;7.40;99.90;;;;;;5015561;28;20046;-72
2022/11/19 04:32:31;;;;;;;16.00;3.10;;;7.40;99.90;;;;;;5016069;28;20046;-72
2022/11/19 04:34:59;;;;;;;19.13;2.75;;;7.40;99.90;;;;;;5015798;28;20042;-72
2022/11/19 04:37:26;;;;;;;17.95;2.75;;;7.40;99.90;;;;;;5014963;28;20484;-72
2022/11/19 04:39:54;;;;;;;20.13;2.92;;;7.40;99.90;;;;;;5016120;28;20381;-72
2022/11/19 04:42:21;;;;;;;17.52;2.83;;;7.40;99.90;;;;;;5014846;28;20042;-72
2022/11/19 04:44:49;;;;;;;13.88;2.83;;;7.50;99.90;;;;;;5015777;28;20057;-72
2022/11/19 04:47:16;;;;;;;15.18;2.33;;;7.50;99.90;;;;;;5016194;28;20061;-72
2022/11/19 04:49:43;;;;;;;18.40;2.83;;;7.50;99.90;;;;;;5014756;28;20376;-72
2022/11/19 04:52:11;;;;;;;19.17;2.90;;;7.50;99.90;;;;;;4998600;28;20041;-73
2022/11/19 04:54:39;;;;;;;21.23;2.85;;;7.50;99.90;;;;;;5015857;28;20046;-72
2022/11/19 04:57:06;;;;;;;;;;;7.50;99.90;;;;;;4998371;28;20058;-72
2022/11/19 04:59:34;;;;;;;18.02;2.90;;;7.50;99.90;;;;;;5015770;28;20252;-72
2022/11/19 05:02:01;;;;;;;17.27;3.00;;;7.50;99.90;;;;;;5015714;28;20041;-72
2022/11/19 05:04:29;;;;;;;16.48;2.83;;;7.50;99.90;;;;;;5014650;28;20493;-72
2022/11/19 05:06:56;;;;;;;20.55;2.95;;;7.60;99.90;;;;;;5015709;28;20365;-72
2022/11/19 05:09:24;;;;;;;27.65;3.17;;;7.60;99.90;;;;;;4997118;28;20054;-72
2022/11/19 05:11:51;;;;;;;16.70;2.58;;;7.60;99.90;;;;;;4998138;28;20056;-72
2022/11/19 05:14:18;;;;;;;19.95;3.00;;;7.60;99.90;;;;;;5015451;28;20049;-71
2022/11/19 05:16:46;;;;;;;9.93;2.20;;;7.60;99.90;;;;;;5014568;28;20038;-72
2022/11/19 05:19:13;;;;;;;19.40;2.60;;;7.60;99.90;;;;;;5015208;28;20049;-72
2022/11/19 05:21:41;;;;;;;21.90;3.17;;;7.60;99.90;;;;;;5015283;28;20288;-72
2022/11/19 05:24:09;;;;;;;13.90;2.50;;;7.60;99.90;;;;;;5014208;28;20310;-72
2022/11/19 05:26:36;;;;;;;19.35;2.40;;;7.60;99.90;;;;;;5015559;28;20050;-72
2022/11/19 05:29:04;;;;;;;16.35;2.60;;;7.70;99.90;;;;;;5014066;28;20061;-72
2022/11/19 05:31:31;;;;;;;14.90;2.65;;;7.70;99.90;;;;;;5015318;28;20054;-72
2022/11/19 05:33:59;;;;;;;14.48;2.50;;;7.70;99.90;;;;;;5014867;28;20054;-72
2022/11/19 05:36:26;;;;;;;15.43;2.78;;;7.70;99.90;;;;;;5013897;28;20046;-72
2022/11/19 05:38:53;;;;;;;12.48;2.30;;;7.70;99.90;;;;;;4998067;28;20050;-72
2022/11/19 05:41:21;;;;;;;18.90;2.80;;;7.70;99.90;;;;;;5014971;28;20057;-72
2022/11/19 05:43:48;;;;;;;17.05;2.78;;;7.80;99.90;;;;;;5013645;28;20042;-72
2022/11/19 05:46:16;;;;;;;16.05;2.60;;;7.70;99.90;;;;;;5015099;28;20050;-71
2022/11/19 05:48:43;;;;;;;16.38;2.50;;;7.80;99.90;;;;;;5014870;28;20049;-72
2022/11/19 05:51:15;;;;;;;19.40;2.38;;;7.70;99.90;;;;;;5013770;28;20038;-72
2022/11/19 05:53:42;;;;;;;16.63;2.47;;;7.80;99.90;;;;;;5015318;28;20064;-72
2022/11/19 05:56:10;;;;;;;14.38;2.20;;;7.80;99.90;;;;;;4996547;28;20045;-72
2022/11/19 05:58:37;;;;;;;13.70;2.60;;;7.80;99.90;;;;;;5014995;28;20535;-72
2022/11/19 06:01:05;;;;;;;14.90;2.30;;;7.80;99.90;;;;;;5015034;28;20061;-72
2022/11/19 06:03:33;;;;;;;13.45;2.35;;;7.80;99.90;;;;;;5013999;28;20049;-72
2022/11/19 06:06:00;;;;;;;20.95;2.53;;;7.80;99.90;;;;;;5015095;28;20056;-72
2022/11/19 06:08:28;;;;;;;18.02;2.65;;;7.80;99.90;;;;;;5014835;28;20369;-72
2022/11/19 06:10:55;;;;;;;16.10;2.63;;;7.90;99.90;;;;;;4996790;28;20052;-72
2022/11/19 06:13:23;;;;;;;21.30;2.58;;;7.90;99.90;;;;;;5014718;28;20456;-71
2022/11/19 06:15:51;;;;;;;12.63;2.25;;;8.60;99.90;;;;;;4997314;28;20053;-72
2022/11/19 06:18:18;;;;;;;18.73;2.40;;;7.90;99.90;;;;;;5014716;28;20042;-72
2022/11/19 06:20:46;;;;;;;13.23;2.13;;;7.90;99.90;;;;;;5014623;28;20045;-71
2022/11/19 06:23:13;;;;;;;13.10;2.43;;;8.70;99.90;;;;;;4996247;28;20057;-72
2022/11/19 06:25:41;;;;;;;17.13;2.25;;;7.90;99.90;;;;;;4997543;28;20592;-72
2022/11/19 06:28:08;;;;;;;16.10;2.42;;;7.90;99.90;;;;;;5014789;28;20050;-72
2022/11/19 06:30:36;;;;;;;15.00;2.30;;;7.90;99.90;;;;;;4996433;28;20058;-72
2022/11/19 06:33:03;;;;;;;17.38;2.38;;;7.90;99.90;;;;;;5014441;28;20291;-72
2022/11/19 06:35:31;;;;;;;14.32;2.03;;;7.90;99.90;;;;;;5014529;28;20046;-72
2022/11/19 06:37:58;;;;;;;9.07;1.73;;;8.50;99.90;;;;;;5013959;28;20211;-71
2022/11/19 06:40:26;;;;;;;15.95;2.35;;;8.00;99.90;;;;;;5014253;28;20042;-73
2022/11/19 06:42:53;;;;;;;15.82;2.35;;;8.00;99.90;;;;;;5013696;28;20369;-73
2022/11/19 06:45:21;;;;;;;11.18;2.00;;;9.30;99.90;;;;;;5014193;28;20057;-73
2022/11/19 06:47:48;;;;;;;11.35;2.17;;;8.00;99.90;;;;;;5014691;28;20045;-73
2022/11/19 06:50:16;;;;;;;17.88;2.45;;;8.90;99.90;;;;;;5013699;28;20384;-73
2022/11/19 06:52:44;;;;;;;17.35;2.17;;;8.00;99.90;;;;;;5015022;28;20046;-73
2022/11/19 06:55:12;;;;;;;19.25;2.42;;;8.00;99.90;;;;;;5014249;28;20042;-73
2022/11/19 06:57:39;;;;;;;21.77;2.50;;;8.00;99.90;;;;;;5016082;28;20061;-73
2022/11/19 07:00:07;;;;;;;12.20;2.10;;;8.00;99.90;;;;;;5017944;28;20045;-73
2022/11/19 07:02:35;;;;;;;22.27;2.38;;;8.00;99.90;;;;;;4999777;28;20465;-74
2022/11/19 07:05:03;;;;;;;15.52;2.20;;;8.00;99.90;;;;;;5017957;28;20046;-73
2022/11/19 07:07:31;;;;;;;16.77;2.30;;;8.10;99.90;;;;;;5017837;28;20065;-73
2022/11/19 07:09:58;;;;;;;15.82;2.58;;;10.10;99.90;;;;;;5016499;28;20064;-73
2022/11/19 07:12:26;;;;;;;14.70;2.35;;;8.10;99.90;;;;;;5018032;28;20056;-73
2022/11/19 07:14:53;;;;;;;14.32;2.50;;;8.10;99.90;;;;;;5017583;28;20373;-73
2022/11/19 07:17:26;;;;;;;17.23;2.55;;;8.10;99.90;;;;;;5000176;28;20373;-73
2022/11/19 07:19:56;;;;;;;14.60;2.50;;;8.60;99.90;;;;;;5017602;28;20408;-73
2022/11/19 07:22:24;;;;;;;14.32;2.55;;;9.20;99.90;;;;;;5016290;28;20050;-73
2022/11/19 07:24:51;;;;;;;9.75;1.83;;;8.10;99.90;;;;;;5017843;28;20038;-73
2022/11/19 07:27:18;;;;;;;15.27;2.53;;;8.10;99.90;;;;;;5000701;28;20050;-74
2022/11/19 07:29:46;;;;;;;16.15;2.10;;;8.10;99.90;;;;;;5016212;28;20041;-74
2022/11/19 07:32:13;;;;;;;14.85;2.35;;;8.10;99.90;;;;;;5017124;28;20050;-73
2022/11/19 07:34:41;;;;;;;13.60;2.10;;;8.90;99.90;;;;;;4999874;28;20046;-73
2022/11/19 07:37:08;;;;;;;12.52;2.17;;;8.10;99.90;;;;;;5016543;28;20065;-73
2022/11/19 07:39:36;;;;;;;12.02;2.03;;;8.70;99.90;;;;;;5017194;28;20375;-74
2022/11/19 07:44:52;;;;;;;16.98;2.35;;;8.10;99.90;;;;;;5023135;28;20041;-74
2022/11/19 07:47:21;;;;;;;17.90;2.30;;;8.20;99.90;;;;;;5036652;28;20046;-73
2022/11/19 07:49:49;;;;;;;15.00;2.28;;;8.20;99.90;;;;;;5035539;28;20045;-73
2022/11/19 07:52:16;;;;;;;15.88;2.35;;;10.30;99.90;;;;;;5019692;28;20064;-73
2022/11/19 07:54:44;;;;;;;15.27;2.28;;;8.20;99.90;;;;;;5019280;28;20057;-73
2022/11/19 07:57:11;;;;;;;21.35;2.85;;;8.20;99.90;;;;;;5035500;28;20099;-73
2022/11/19 07:59:39;;;;;;;19.20;2.70;;;8.20;99.90;;;;;;5036474;28;20049;-73
2022/11/19 08:02:10;;;;;;;15.85;2.40;;;9.10;99.90;;;;;;5036516;28;20041;-73
2022/11/19 08:04:37;;;;;;;15.27;2.50;;;10.30;99.90;;;;;;5018141;28;20049;-73
2022/11/19 08:07:05;;;;;;;21.35;2.58;;;9.00;99.90;;;;;;5035638;28;20048;-73
2022/11/19 08:09:33;;;;;;;18.55;2.67;;;8.30;99.90;;;;;;5034971;28;20057;-73
2022/11/19 08:12:00;;;;;;;22.65;2.60;;;8.30;99.90;;;;;;5036111;28;20046;-73
2022/11/19 08:14:28;;;;;;;11.82;2.33;;;8.30;99.90;;;;;;5036278;28;20053;-73
2022/11/19 08:19:41;;;;;;;14.85;2.15;;;8.40;99.90;;;;;;5035956;28;20045;-73
2022/11/19 08:22:12;;;;;;;17.73;2.78;;;8.40;99.90;;;;;;5035674;28;20068;-73
2022/11/19 08:24:39;;;;;;;22.98;3.10;;;9.00;99.90;;;;;;5035696;28;20045;-73
2022/11/19 08:27:08;;;;;;;13.93;2.00;;;8.40;99.90;;;;;;5035750;28;20060;-73
2022/11/19 08:29:36;;;;;;;19.98;2.50;;;10.50;99.90;;;;;;5017386;28;20049;-73
2022/11/19 08:32:03;;;;;;;14.68;2.13;;;8.50;99.90;;;;;;5018383;28;20057;-74
2022/11/19 08:34:31;;;;;;;15.45;2.58;;;8.50;99.90;;;;;;5035710;28;20049;-73
2022/11/19 08:36:58;;;;;;;12.90;2.33;;;8.70;99.90;;;;;;5047183;28;20368;-72
2022/11/19 08:39:26;;;;;;;16.48;2.38;;;9.30;99.90;;;;;;5055329;28;20049;-73
2022/11/19 08:44:40;;;;;;;13.30;2.58;;;8.60;99.90;;;;;;5055887;28;19982;-73
2022/11/19 08:47:07;;;;;;;15.90;2.45;;;8.60;99.90;;;;;;5055094;28;20057;-73
2022/11/19 08:49:35;;;;;;;16.77;2.38;;;9.10;99.90;;;;;;5054340;28;20053;-73
2022/11/19 08:52:02;;;;;;;22.40;2.55;;;8.60;99.90;;;;;;5055450;28;20075;-73
2022/11/19 08:54:30;;;;;;;14.70;2.53;;;9.30;99.90;;;;;;5055469;28;20486;-73
2022/11/19 08:56:58;;;;;;;17.33;2.30;;;9.50;99.90;;;;;;5054513;28;20041;-73
2022/11/19 08:59:25;;;;;;;15.75;2.38;;;8.80;99.90;;;;;;5054596;28;20571;-73
2022/11/19 09:01:53;;;;;;;19.50;2.28;;;8.70;99.90;;;;;;5055275;28;20041;-73
2022/11/19 09:04:20;;;;;;;16.48;2.00;;;8.80;99.90;;;;;;5054071;28;20062;-73
2022/11/19 09:06:48;;;;;;;14.00;2.40;;;8.80;99.90;;;;;;5055216;28;20045;-73
2022/11/19 09:09:16;;;;;;;13.15;2.50;;;8.80;99.90;;;;;;5054336;28;20380;-73
2022/11/19 09:11:44;;;;;;;11.30;2.28;;;8.80;99.90;;;;;;5055234;28;20048;-73
2022/11/19 09:14:11;;;;;;;12.98;2.33;;;8.70;99.90;;;;;;5051538;28;20045;-72
2022/11/19 09:16:39;;;;;;;10.20;2.07;;;8.80;99.90;;;;;;5045331;28;20068;-71
2022/11/19 09:19:06;;;;;;;17.20;2.63;;;9.60;99.90;;;;;;5033562;28;20045;-72
2022/11/19 09:21:34;;;;;;;13.80;2.40;;;8.70;99.90;;;;;;5050835;28;20037;-73
2022/11/19 09:24:01;;;;;;;14.93;2.53;;;8.70;99.90;;;;;;5053779;28;20043;-73
2022/11/19 09:26:29;;;;;;;16.05;2.47;;;8.70;99.90;;;;;;5055047;28;20060;-74
2022/11/19 09:28:56;;;;;;;12.63;2.15;;;10.30;99.90;;;;;;5052473;28;20064;-73
2022/11/19 09:31:24;;;;;;;15.32;2.47;;;10.40;99.90;;;;;;5053651;28;20052;-73
2022/11/19 09:33:52;;;;;;;13.00;2.45;;;10.70;99.90;;;;;;5037049;28;20049;-71
2022/11/19 09:36:20;;;;;;;14.52;2.28;;;8.90;99.90;;;;;;5033500;28;20046;-76
2022/11/19 09:38:48;;;;;;;19.10;2.50;;;9.40;99.90;;;;;;4999985;28;20495;-73
2022/11/19 09:41:19;;;;;;;17.70;2.55;;;9.40;99.90;;;;;;5034441;28;20053;-72
2022/11/19 09:44:12;;;;;;;21.70;2.50;;;9.20;99.90;;;;;;5033343;28;20046;-74
2022/11/19 09:47:23;;;;;;;10.90;2.28;;;9.30;99.90;;;;;;5035171;28;20049;-74
2022/11/19 09:50:17;;;;;;;17.45;2.38;;;9.40;99.90;;;;;;5004798;28;20491;-73
2022/11/19 09:52:54;;;;;;;15.20;2.47;;;9.40;99.90;;;;;;5034974;28;20472;-74
2022/11/19 09:55:44;;;;;;;18.47;2.70;;;9.50;99.90;;;;;;5034537;28;20052;-73
2022/11/19 09:58:26;;;;;;;18.17;2.90;;;9.60;99.90;;;;;;5030986;28;20279;-73
2022/11/19 10:00:53;;;;;;;15.38;2.67;;;9.60;99.90;;;;;;5015497;28;20042;-73
2022/11/19 10:03:23;;;;;;;16.10;2.72;;;10.40;99.90;;;;;;5013720;28;20069;-74
2022/11/19 10:06:05;;;;;;;15.75;2.65;;;9.70;99.90;;;;;;4998981;28;20477;-74
2022/11/19 10:08:51;;;;;;;19.83;2.88;;;9.70;99.90;;;;;;5014805;28;20042;-73
2022/11/19 10:11:36;;;;;;;15.80;2.38;;;9.70;99.90;;;;;;4999011;28;20049;-73
2022/11/19 10:14:15;;;;;;;15.20;2.42;;;9.70;99.90;;;;;;5015277;28;20038;-74
2022/11/19 10:17:03;;;;;;;13.18;2.42;;;9.80;99.90;;;;;;4996506;28;20109;-74
2022/11/19 10:19:53;;;;;;;17.27;3.00;;;9.60;99.90;;;;;;5014862;28;20061;-73
2022/11/19 10:22:27;;;;;;;16.38;2.50;;;9.70;99.90;;;;;;4996761;28;20303;-74
2022/11/19 10:25:16;;;;;;;19.55;2.70;;;11.00;99.90;;;;;;4997411;28;20050;-74
2022/11/19 10:27:55;;;;;;;19.40;2.75;;;9.60;99.90;;;;;;5015141;28;20057;-74
2022/11/19 10:30:25;;;;;;;15.80;2.58;;;9.70;99.90;;;;;;4997047;28;20057;-73
2022/11/19 10:33:01;;;;;;;12.63;2.78;;;9.80;99.90;;;;;;5018331;28;20061;-74
2022/11/19 10:35:43;;;;;;;13.30;2.50;;;9.80;99.90;;;;;;5007175;28;20049;-74
2022/11/19 10:38:39;;;;;;;10.60;2.58;;;9.90;99.90;;;;;;5038068;28;20049;-74
2022/11/19 10:41:16;;;;;;;10.88;2.60;;;10.00;99.90;;;;;;5034421;28;20045;-74
2022/11/19 10:43:59;;;;;;;11.75;2.50;;;10.10;99.90;;;;;;5037054;28;20037;-74
2022/11/19 10:46:27;;;;;;;11.68;2.47;;;10.20;99.90;;;;;;5037184;28;20045;-74
2022/11/19 10:48:57;;;;;;;19.80;2.90;;;10.30;99.90;;;;;;5039539;28;20049;-74
2022/11/19 10:51:51;;;;;;;16.42;2.90;;;10.30;99.90;;;;;;5038255;28;20053;-74
2022/11/19 10:54:26;;;;;;;10.82;2.75;;;10.30;99.90;;;;;;5034334;28;20062;-74
2022/11/19 10:56:56;;;;;;;21.20;2.72;;;10.30;99.90;;;;;;5036499;28;20465;-74
2022/11/19 10:59:27;;;;;;;15.98;2.50;;;11.30;99.90;;;;;;5037118;28;20056;-74
2022/11/19 11:02:01;;;;;;;12.70;2.60;;;11.10;99.90;;;;;;5037975;28;20053;-74
2022/11/19 11:04:29;;;;;;;15.40;2.72;;;11.10;99.90;;;;;;5035576;28;20060;-74
2022/11/19 11:06:59;;;;;;;;;;;10.20;99.90;;;;;;5038215;28;20053;-74
2022/11/19 11:09:27;;;;;;;16.27;2.65;;;10.30;99.90;;;;;;5036259;28;19928;-73
2022/11/19 11:14:52;;;;;;;13.95;2.50;;;10.40;99.90;;;;;;5037739;28;20293;-74
2022/11/19 11:17:22;;;;;;;12.63;2.58;;;10.40;99.90;;;;;;5034971;28;20505;-74
2022/11/19 11:20:21;;;;;;;12.85;2.30;;;11.30;99.90;;;;;;5037396;28;20053;-74
2022/11/19 11:23:00;;;;;;;10.07;2.45;;;10.40;99.90;;;;;;5036277;28;20461;-74
2022/11/19 11:25:28;;;;;;;10.48;2.40;;;10.40;99.90;;;;;;5037190;28;20053;-76
2022/11/19 11:28:17;;;;;;;11.63;2.42;;;10.50;99.90;;;;;;5035927;28;20067;-73
2022/11/19 11:30:57;;;;;;;17.63;2.42;;;10.50;99.90;;;;;;5034990;28;20064;-73
2022/11/19 11:33:34;;;;;;;17.58;2.78;;;10.50;99.90;;;;;;5037566;28;20042;-73
2022/11/19 11:36:06;;;;;;;11.25;2.60;;;10.50;99.90;;;;;;5026661;28;20068;-73
2022/11/19 11:38:46;;;;;;;14.07;2.60;;;10.50;99.90;;;;;;5016963;28;20369;-73
2022/11/19 11:41:19;;;;;;;11.60;2.38;;;10.50;99.90;;;;;;5000321;28;20042;-73
2022/11/19 11:44:18;;;;;;;17.70;2.55;;;10.50;99.90;;;;;;5015962;28;20038;-72
2022/11/19 11:46:52;;;;;;;12.85;2.60;;;10.60;99.90;;;;;;5017149;28;20046;-73
2022/11/19 11:49:22;;;;;;;13.43;2.42;;;10.60;99.90;;;;;;5016289;28;20049;-73
2022/11/19 11:52:31;;;;;;;12.00;2.50;;;10.70;99.90;;;;;;5017616;28;20042;-73
2022/11/19 11:55:04;;;;;;;12.85;2.10;;;10.80;99.90;;;;;;4992123;28;20054;-73
2022/11/19 11:57:34;;;;;;;12.82;2.38;;;11.20;99.90;;;;;;5015709;28;20049;-73
2022/11/19 12:00:38;;;;;;;11.23;2.15;;;10.90;99.90;;;;;;5017114;28;20052;-73
2022/11/19 12:03:07;;;;;;;14.82;2.65;;;11.00;99.90;;;;;;5015900;28;20053;-73
2022/11/19 12:05:55;;;;;;;12.80;2.40;;;11.70;99.90;;;;;;5016588;28;20372;-74
2022/11/19 12:08:42;;;;;;;11.60;2.60;;;11.00;99.90;;;;;;5016553;28;20054;-73
2022/11/19 12:11:22;;;;;;;13.98;2.85;;;11.50;99.90;;;;;;5015434;28;20052;-74
2022/11/19 12:13:55;;;;;;;12.02;2.78;;;11.20;99.90;;;;;;5016603;28;20125;-74
2022/11/19 12:16:39;;;;;;;22.30;2.80;;;11.30;99.90;;;;;;4998812;28;20050;-74
2022/11/19 12:19:46;;;;;;;16.58;2.90;;;11.30;99.90;;;;;;4999521;28;20484;-74
2022/11/19 12:22:13;;;;;;;11.10;2.40;;;11.30;99.90;;;;;;5016041;28;20048;-73
2022/11/19 12:24:47;;;;;;;18.00;3.10;;;11.20;99.90;;;;;;5016702;28;20042;-73
2022/11/19 12:27:22;;;;;;;12.50;2.40;;;11.20;99.90;;;;;;5016445;28;20056;-73
2022/11/19 12:29:56;;;;;;;15.73;2.90;;;11.30;99.90;;;;;;4997834;28;20068;-77
2022/11/19 12:32:52;;;;;;;16.20;2.50;;;11.20;99.90;;;;;;5016005;28;20065;-75
2022/11/19 12:35:59;;;;;;;12.98;2.53;;;11.20;99.90;;;;;;5015627;28;20306;-73
2022/11/19 12:38:40;;;;;;;13.35;2.60;;;11.20;99.90;;;;;;4998865;28;20046;-73
2022/11/19 12:41:24;;;;;;;12.90;2.65;;;11.30;99.90;;;;;;4998594;28;20058;-73
2022/11/19 12:44:00;;;;;;;16.55;2.55;;;11.20;99.90;;;;;;5014626;28;20049;-74
2022/11/19 12:46:40;;;;;;;17.73;2.88;;;11.20;99.90;;;;;;5002175;28;20056;-74
2022/11/19 12:49:32;;;;;;;12.00;2.40;;;11.20;99.90;;;;;;5000397;28;20388;-74
2022/11/19 12:52:52;;;;;;;14.57;3.33;;;11.10;99.90;;;;;;4998654;28;20054;-74
2022/11/19 12:55:23;;;;;;;13.75;2.58;;;11.00;99.90;;;;;;4997670;28;20070;-74
2022/11/19 12:57:57;;;;;;;11.15;2.35;;;11.00;99.90;;;;;;5014516;28;20057;-74
2022/11/19 13:00:29;;;;;;;12.82;2.50;;;10.90;99.90;;;;;;4998298;28;20042;-74
2022/11/19 13:03:43;;;;;;;20.05;2.40;;;11.00;99.90;;;;;;4997392;28;20046;-74
2022/11/19 13:06:41;;;;;;;12.45;2.60;;;10.80;99.90;;;;;;4998206;28;20059;-73
2022/11/19 13:09:33;;;;;;;11.77;2.70;;;11.70;99.90;;;;;;5014506;28;20050;-73
2022/11/19 13:12:06;;;;;;;16.40;2.38;;;10.70;99.90;;;;;;5005464;28;20068;-73
2022/11/19 13:15:02;;;;;;;9.32;2.20;;;10.70;99.90;;;;;;5015290;28;20508;-73
2022/11/19 13:17:36;;;;;;;8.93;2.17;;;10.70;99.90;;;;;;5012630;28;20045;-73
2022/11/19 13:20:20;;;;;;;10.15;2.20;;;11.30;99.90;;;;;;5015046;28;20046;-73
2022/11/19 13:22:51;;;;;;;13.23;2.28;;;10.90;99.90;;;;;;5014232;28;20088;-73
2022/11/19 13:25:35;;;;;;;17.48;2.78;;;10.60;99.90;;;;;;5015146;28;20046;-73
2022/11/19 13:28:09;;;;;;;9.00;2.30;;;10.50;99.90;;;;;;4997777;28;20057;-73
2022/11/19 13:30:43;;;;;;;7.32;2.00;;;10.20;99.90;;;;;;4997040;28;20117;-73
2022/11/19 13:33:25;;;;;;;13.48;3.03;;;12.90;99.90;;;;;;4997062;28;20046;-73
2022/11/19 13:36:08;;;;;;;10.05;2.20;;;10.60;99.90;;;;;;4992753;28;20216;-73
2022/11/19 13:38:49;;;;;;;10.07;2.30;;;10.50;99.90;;;;;;5035143;28;20037;-73
2022/11/19 13:41:34;;;;;;;9.43;2.10;;;10.50;99.90;;;;;;5034154;28;20471;-73